Startpagina
METAR-TAF:

METAR-TAF

Vliegvelden :

Londen-Heathrow, Engeland

London Heathrow Airport

breedte: 51-29N, lengte: 000-27W, hoogte: 24 m

Actueel weer

Dit bericht is 34 minuten geleden gemaakt, om 14:50 UTC
Wind 11 kt uit het zuidzuidwesten, variërend tussen het zuiden en het westzuidwesten
Temperatuur 18°C
Vochtigheid 52%
Druk 1021 hPa
Zicht 10 km of meer
Weinig wolken op 4200 ft

METAR: EGLL 221450Z AUTO 21011KT 180V240 9999 FEW042 18/08 Q1021

Tijdstip: 16:24 (15:24 UTC)

Verwachting

Dit bericht is 2 uur en het 58 minuten geleden gemaakt, om 12:26 UTC
Verwachting geldig van 22 om 12 UTC tot 23 om 18 UTC
Wind 10 kt uit het zuidzuidwesten
Zicht 10 km of meer
Verspreide wolken op 4000 ft
Kans 30% :
Tijdelijke
van 22 om 19 UTC tot 23 om 09 UTC
Zicht: 6000 m
regen
Wijzigt naar
van 23 om 15 UTC tot 23 om 18 UTC
Wind 6 kt uit het zuidzuidoosten

TAF: EGLL 221226Z 2212/2318 21010KT 9999 SCT040 PROB30 TEMPO 2219/2309 6000 RA BECMG 2315/2318 15006KT

Waarnemingen en weersverwachtingen van meer dan 4000 vliegvelden (METAR en TAF).

De beschikbare stations zijn de gele en rode punten op de kaart.

Ga met uw muis naar het station om de naam te zien.

Klik dan om waarnemingen en weersverwachtingen te zien.

kaart wijzigen: klik op de groene knoppen met een zwart kruis om in te zoomen, op de groene knop met een streepje om uit te zoomen of op de groene pijlen voor aangrenzende kaarten.


METAR-TAF: